createdAt,value
2023-01-09T00:01:20.913Z,97765.47284221814
2023-01-09T00:04:17.392Z,97758.44253002772
2023-01-09T00:07:16.952Z,97753.39112613282
2023-01-09T00:11:16.907Z,97753.79566828522
2023-01-09T00:14:17.936Z,97755.64345660171
2023-01-09T00:17:17.220Z,97745.65115324769
2023-01-09T00:21:15.887Z,97727.18404997527
2023-01-09T00:24:16.305Z,97721.72418134667
2023-01-09T00:27:16.398Z,97710.56253801644
2023-01-09T00:31:18.237Z,97718.68355956965
2023-01-09T00:34:17.196Z,97700.6391604672
2023-01-09T00:37:17.051Z,97700.6594064264
2023-01-09T00:41:20.540Z,97677.06880307649
2023-01-09T00:44:19.863Z,97656.73834867934
2023-01-09T00:47:21.766Z,97674.14955819167
2023-01-09T00:51:18.836Z,97668.37462889998
2023-01-09T00:54:19.410Z,97664.87391165919
2023-01-09T00:57:17.275Z,97645.9118550365
2023-01-09T01:01:16.158Z,97632.86789559005
2023-01-09T01:11:17.315Z,97649.6281097006
2023-01-09T01:14:16.853Z,97655.87649171051
2023-01-09T01:17:16.813Z,97656.68235708024
2023-01-09T01:21:16.979Z,97652.19695844554
2023-01-09T01:24:20.030Z,97643.75478048499
2023-01-09T01:27:17.168Z,97647.3676813354
2023-01-09T01:31:18.457Z,97630.70117402112
2023-01-09T01:34:17.161Z,97619.84899757433
2023-01-09T01:37:17.324Z,97627.178357927
2023-01-09T01:41:29.818Z,97613.29299160108
2023-01-09T01:45:08.726Z,97614.67710473565
2023-01-09T01:47:18.067Z,97608.74153950179
2023-01-09T01:51:19.864Z,97603.01451585212
2023-01-09T01:54:23.890Z,97600.06590161983
2023-01-09T01:57:16.652Z,97585.31497793166
2023-01-09T02:01:18.206Z,97598.85265928932
2023-01-09T02:04:17.666Z,97593.81695106626
2023-01-09T02:07:17.125Z,97567.28265603277
2023-01-09T02:11:18.047Z,97581.23460828268
2023-01-09T02:14:18.812Z,97560.05046613373
2023-01-09T02:17:29.469Z,97555.8390790154
2023-01-09T02:21:27.084Z,97546.48380217091
2023-01-09T02:24:35.309Z,97538.67920188599
2023-01-09T02:27:36.558Z,97515.66156076409
2023-01-09T02:31:21.377Z,97527.95174818965
2023-01-09T02:34:25.598Z,97511.28537379332
2023-01-09T02:37:25.038Z,97508.74707634021
2023-01-09T02:41:21.929Z,97499.37943730757
2023-01-09T02:44:21.115Z,97495.36495431438
2023-01-09T02:47:48.473Z,97481.05213788587
2023-01-09T02:51:23.021Z,97473.38587198169
2023-01-09T02:54:28.696Z,97455.4767573419
2023-01-09T02:57:35.636Z,97450.90285509362
2023-01-09T03:01:26.699Z,97445.67870745106
2023-01-09T03:04:22.987Z,97442.44878517247
2023-01-09T03:07:24.458Z,97454.822764863
2023-01-09T03:11:16.080Z,97491.02000890372
2023-01-09T03:14:20.485Z,97468.2886500144
2023-01-09T03:17:22.891Z,97483.44734202445
2023-01-09T03:21:16.839Z,97467.57262906048
2023-01-09T03:24:16.796Z,97457.0364765386
2023-01-09T03:27:17.262Z,97456.21475165937
2023-01-09T03:31:16.890Z,97428.90553925376
2023-01-09T03:34:16.607Z,97436.6211307555
2023-01-09T03:37:16.549Z,97407.68584667254
2023-01-09T03:41:17.005Z,97403.95640234342
2023-01-09T03:44:16.732Z,97391.02493105934
2023-01-09T03:47:16.814Z,97384.70799797945
2023-01-09T03:51:16.455Z,97384.2855969711
2023-01-09T03:54:16.879Z,97360.88041963367
2023-01-09T03:57:16.702Z,97345.88168702021
2023-01-09T04:01:16.575Z,97353.02290828255
2023-01-09T04:04:17.128Z,97363.88347639765
2023-01-09T04:07:17.403Z,97360.12723613823
2023-01-09T04:11:18.332Z,97359.19483009644
2023-01-09T04:14:17.134Z,97344.31481054825
2023-01-09T04:17:17.083Z,97331.19201808941
2023-01-09T04:21:16.321Z,97344.69602216176
2023-01-09T04:24:16.893Z,97329.65415703549
2023-01-09T04:27:17.770Z,97313.04487733144
2023-01-09T04:31:16.592Z,97329.35455090307
2023-01-09T04:34:16.885Z,97313.09733646322
2023-01-09T04:37:16.577Z,97317.6046952545
2023-01-09T04:41:49.041Z,97300.5812182905
2023-01-09T04:44:17.592Z,97296.85598272522
2023-01-09T04:47:16.813Z,97315.95066508406
2023-01-09T04:51:16.492Z,97316.64958664299
2023-01-09T04:54:17.269Z,97268.69177893476
2023-01-09T04:57:17.525Z,97301.55400028494
2023-01-09T05:01:16.753Z,97331.67700838564
2023-01-09T05:04:17.253Z,97321.998559617
2023-01-09T05:07:16.920Z,97322.34237572468
2023-01-09T05:11:16.173Z,97320.92997935392
2023-01-09T05:14:16.685Z,97318.4254291904
2023-01-09T05:17:16.391Z,97320.60877884425
2023-01-09T05:21:16.272Z,97314.73274256631
2023-01-09T05:24:16.860Z,97329.41196518687
2023-01-09T05:27:19.033Z,97323.8089788359
2023-01-09T05:31:17.593Z,97322.07108354072
2023-01-09T05:34:17.497Z,97323.05989200399
2023-01-09T05:37:17.428Z,97310.6373616175
2023-01-09T05:41:17.524Z,97316.7861991441
2023-01-09T05:44:17.608Z,97275.45024968362
2023-01-09T05:47:17.469Z,97292.91829737303
2023-01-09T05:51:17.198Z,97267.97029641068
2023-01-09T05:54:18.113Z,97268.6864895589
2023-01-09T05:57:17.255Z,97259.47608204871
2023-01-09T06:01:15.926Z,97244.26599484596
2023-01-09T06:04:16.258Z,97260.63524025801
2023-01-09T06:07:20.304Z,97242.49701664552
2023-01-09T06:11:16.253Z,97244.40469800246
2023-01-09T06:14:16.624Z,97240.36226488686
2023-01-09T06:17:16.689Z,97236.33432995102
2023-01-09T06:21:16.108Z,97234.62097665426
2023-01-09T06:24:16.806Z,97205.42944466622
2023-01-09T06:27:16.555Z,97210.26963449291
2023-01-09T06:31:16.383Z,97189.282337564
2023-01-09T06:34:16.763Z,97179.90579667327
2023-01-09T06:37:16.844Z,97174.60576129868
2023-01-09T06:41:16.476Z,97166.64608493325
2023-01-09T06:44:16.778Z,97177.8266870086
2023-01-09T06:47:16.902Z,97177.60757827325
2023-01-09T06:51:16.144Z,97167.62153902331
2023-01-09T06:54:16.698Z,97142.6622305708
2023-01-09T06:57:16.613Z,97127.10121813702
2023-01-09T07:01:16.146Z,97121.01236471414
2023-01-09T07:04:18.008Z,97117.24203595227
2023-01-09T07:07:16.548Z,97133.12450258713
2023-01-09T07:11:16.190Z,97143.95727129227
2023-01-09T07:14:16.625Z,97184.06714161548
2023-01-09T07:17:16.829Z,97167.02005223
2023-01-09T07:21:16.287Z,97184.51770459015
2023-01-09T07:24:16.725Z,97165.68700562345
2023-01-09T07:27:16.715Z,97177.15754286612
2023-01-09T07:31:16.871Z,97215.02253587353
2023-01-09T07:34:17.142Z,97189.33512929986
2023-01-09T07:37:17.215Z,97177.46112559752
2023-01-09T07:41:15.711Z,97217.46822755948
2023-01-09T07:44:16.224Z,97194.86677235061
2023-01-09T07:47:16.211Z,97204.79323967018
2023-01-09T07:51:21.363Z,97186.10000504923
2023-01-09T07:54:22.138Z,97216.56748336049
2023-01-09T07:57:21.663Z,97204.73991920192
2023-01-09T15:01:20.915Z,96945.84842969564
2023-01-09T15:04:39.671Z,96956.98848584516
2023-01-09T15:07:20.544Z,96970.12388615588
2023-01-09T15:11:17.845Z,96969.25573598623
2023-01-09T15:14:28.670Z,96953.76667868198
2023-01-09T15:17:20.998Z,96955.7890474636
2023-01-09T15:21:20.884Z,96952.59228277978
2023-01-09T15:24:22.039Z,96971.96226572225
2023-01-09T15:27:16.872Z,96957.01035683427
2023-01-09T15:31:18.939Z,96968.34984146447
2023-01-09T15:34:19.845Z,96974.500802674
2023-01-09T15:37:26.192Z,96969.67757383407
2023-01-09T15:42:57.362Z,96977.69283261409
2023-01-09T15:44:20.594Z,96983.28120678502
2023-01-09T15:47:21.829Z,96999.33691593648
2023-01-09T15:51:17.682Z,96997.30024231049
2023-01-09T15:54:20.066Z,96988.63363853216
2023-01-09T15:57:32.295Z,96997.38861875443
2023-01-09T16:01:26.897Z,97000.82368818572
2023-01-09T16:04:16.857Z,97006.76523532884
2023-01-09T16:07:20.005Z,97009.55055199338
2023-01-09T16:11:22.963Z,97005.73997863178
2023-01-09T16:14:20.392Z,97007.68679587854
2023-01-09T16:17:17.469Z,97011.77553440674
2023-01-09T16:21:32.040Z,97029.09932848383
2023-01-09T16:24:26.940Z,97035.75703760362
2023-01-09T16:27:26.640Z,97042.51912507831
2023-01-09T16:31:20.674Z,97059.2661786719
2023-01-09T16:34:17.819Z,97057.9655165215
2023-01-09T16:37:16.990Z,97056.28390434077
2023-01-09T16:51:18.322Z,97063.23546360571
2023-01-09T16:54:17.014Z,97071.14067462226
2023-01-09T16:57:17.455Z,97065.29518818621
2023-01-09T17:01:16.791Z,97066.55815756145
2023-01-09T17:04:17.579Z,97068.19299158956
2023-01-09T17:07:19.558Z,97068.59193622891
2023-01-09T17:11:19.809Z,97072.76493113785
2023-01-09T17:14:16.044Z,97071.65747304454
2023-01-09T17:17:16.645Z,97075.96939023283
2023-01-09T17:21:18.227Z,97075.27801645166
2023-01-09T17:31:17.163Z,97085.34983147438
2023-01-09T17:34:16.563Z,97087.15228303538
2023-01-09T17:37:18.440Z,97082.39033355763
2023-01-09T17:41:16.327Z,97086.3254443197
2023-01-09T17:44:16.753Z,97084.84751681167
2023-01-09T17:47:16.691Z,97084.65030677833
2023-01-09T17:51:15.632Z,97067.12879830324
2023-01-09T17:54:16.172Z,97074.23014370695
2023-01-09T17:57:16.485Z,97074.18017359759
2023-01-09T18:01:17.717Z,97079.23515744295
2023-01-09T18:04:15.989Z,97080.81639586775
2023-01-09T18:07:16.842Z,97079.43118340556
2023-01-09T18:11:19.870Z,97086.8025638232
2023-01-09T18:14:17.731Z,97106.36028955095
2023-01-09T18:17:16.458Z,97116.14335997685
2023-01-09T18:21:18.825Z,97113.5701027239
2023-01-09T18:24:16.545Z,97111.07884797832
2023-01-09T18:27:25.690Z,97104.91074478244
2023-01-09T18:31:24.902Z,97119.30903743698
2023-01-09T18:34:22.607Z,97120.60124347398
2023-01-09T18:37:27.233Z,97114.42567816644
2023-01-09T18:41:23.848Z,97133.91938172857
2023-01-09T18:44:20.529Z,97135.53025066335
2023-01-09T18:47:23.131Z,97138.25436501324
2023-01-09T18:51:18.227Z,97137.36539134369
2023-01-09T18:54:17.931Z,97139.33861709364
2023-01-09T18:57:29.345Z,97148.95541329117
2023-01-09T19:01:16.737Z,97150.10130776925
2023-01-09T19:04:16.847Z,97155.12587736547
2023-01-09T19:07:17.149Z,97157.17503422411
2023-01-09T19:11:15.980Z,97174.19509903112
2023-01-09T19:14:16.348Z,97172.29859705448
2023-01-09T19:17:16.253Z,97174.75073071144
2023-01-09T19:21:18.486Z,97182.09839367367
2023-01-09T19:24:16.913Z,97179.3372227027
2023-01-09T19:27:17.183Z,97183.58107765838
2023-01-09T19:31:17.256Z,97186.91335874863
2023-01-09T19:34:17.956Z,97188.42262570941
2023-01-09T19:37:18.427Z,97193.64148788557
2023-01-09T19:41:19.542Z,97190.68885645898
2023-01-09T19:44:17.072Z,97190.71762432539
2023-01-09T19:47:17.049Z,97192.31218478389
2023-01-09T19:51:17.815Z,97184.18493319394
2023-01-09T19:54:16.432Z,97188.87774692463
2023-01-09T19:57:16.535Z,97188.91590968569
2023-01-09T20:01:19.717Z,97182.2193880064
2023-01-09T20:04:18.824Z,97180.13094357755
2023-01-09T20:07:17.327Z,97179.3715446811
2023-01-09T20:11:16.401Z,97182.29382317622
2023-01-09T20:14:18.202Z,97180.64378776125
2023-01-09T20:17:18.022Z,97187.91197649928
2023-01-09T20:21:16.919Z,97188.25377481381
2023-01-09T20:24:17.106Z,97189.86999619243
2023-01-09T20:27:17.196Z,97186.09352841563
2023-01-09T20:31:22.695Z,97184.77630655511
2023-01-09T20:34:32.989Z,97189.85825071641
2023-01-09T20:37:18.270Z,97189.9345223135
2023-01-09T20:51:16.406Z,97205.58799421808
2023-01-09T20:54:17.896Z,97204.71872344142
2023-01-09T20:57:16.613Z,97204.07394864963
2023-01-09T21:01:16.640Z,97193.66343056668
2023-01-09T21:04:18.305Z,97193.73656390805
2023-01-09T21:07:17.026Z,97188.63833643151
2023-01-09T21:11:17.044Z,97186.73347079326
2023-01-09T21:14:17.160Z,97175.80688651511
2023-01-09T21:17:17.147Z,97178.85453268263
2023-01-09T21:21:18.331Z,97169.71604719879
2023-01-09T21:24:16.324Z,97166.7494391134
2023-01-09T21:27:16.336Z,97177.71303357456
2023-01-09T21:31:19.946Z,97188.74074163951
2023-01-09T21:34:20.732Z,97191.51532729446
2023-01-09T21:37:17.260Z,97183.14448341855
2023-01-09T21:51:16.300Z,97170.81221522094
2023-01-09T21:54:16.585Z,97172.03268353047
2023-01-09T21:57:17.025Z,97182.69085462086
2023-01-09T22:01:16.120Z,97176.36752563836
2023-01-09T22:04:18.588Z,97178.05976272529
2023-01-09T22:07:16.974Z,97179.0470715568
2023-01-09T22:11:16.552Z,97166.26772441914
2023-01-09T22:14:18.287Z,97168.71635267074
2023-01-09T22:17:16.906Z,97182.63142870589
2023-01-09T22:21:17.571Z,97186.49606465141
2023-01-09T22:24:18.165Z,97200.41158918077
2023-01-09T22:27:16.171Z,97203.79491883545
2023-01-09T22:31:18.151Z,97212.71407039267
2023-01-09T22:34:17.694Z,97213.01109883789
2023-01-09T22:37:16.632Z,97223.49870829313
2023-01-09T22:41:16.300Z,97226.63186470568
2023-01-09T22:44:16.567Z,97225.47130447434
2023-01-09T22:47:16.657Z,97216.19870373001
2023-01-09T22:51:18.329Z,97217.74671471055
2023-01-09T22:54:16.467Z,97220.355249096
2023-01-09T22:57:16.230Z,97220.2452417744
2023-01-09T23:01:15.994Z,97220.26282914646
2023-01-09T23:04:16.744Z,97216.94280379004
2023-01-09T23:07:16.307Z,97221.59049346342
2023-01-09T23:11:19.821Z,97217.9021606499
2023-01-09T23:14:16.585Z,97221.48688504397
2023-01-09T23:17:16.422Z,97224.0578830415
2023-01-09T23:21:16.642Z,97214.8460576662
2023-01-09T23:24:18.119Z,97212.0630203446
2023-01-09T23:27:17.116Z,97204.99458294164
2023-01-09T23:31:16.671Z,97206.78109265146
2023-01-09T23:34:19.558Z,97191.96153994097
2023-01-09T23:37:17.026Z,97184.18454690622
2023-01-09T23:41:16.093Z,97176.04277383022
2023-01-09T23:44:16.679Z,97176.88819031729
2023-01-09T23:47:16.581Z,97174.99546861065
2023-01-09T23:51:16.103Z,97183.62894370296
2023-01-09T23:54:17.439Z,97194.2429818137
2023-01-09T23:57:16.408Z,97196.49385935141
